createdAt,value
2022-08-01T00:02:37.489Z,100.00
2022-08-01T00:07:42.407Z,100.00
2022-08-01T00:12:51.406Z,100.00
2022-08-01T00:17:56.719Z,100.00
2022-08-01T00:22:58.442Z,100.00
2022-08-01T00:28:00.189Z,100.00
2022-08-01T00:33:05.810Z,100.00
2022-08-01T00:38:10.029Z,100.00
2022-08-01T00:43:11.794Z,100.00
2022-08-01T00:48:15.804Z,100.00
2022-08-01T00:53:18.977Z,100.00
2022-08-01T00:58:24.169Z,100.00
2022-08-01T01:09:19.637Z,100.00
2022-08-01T01:14:33.842Z,100.00
2022-08-01T01:19:41.019Z,100.00
2022-08-01T01:25:20.541Z,100.00
2022-08-01T01:30:23.786Z,100.00
2022-08-01T01:35:28.271Z,100.00
2022-08-01T01:40:34.150Z,100.00
2022-08-01T01:45:36.877Z,100.00
2022-08-01T01:50:38.692Z,100.00
2022-08-01T01:55:49.338Z,100.00
2022-08-01T02:00:58.826Z,100.00
2022-08-01T02:06:09.842Z,100.00
2022-08-01T02:11:20.704Z,100.00
2022-08-01T02:16:25.927Z,100.00
2022-08-01T02:21:38.836Z,100.00
2022-08-01T02:26:43.275Z,100.00
2022-08-01T02:31:55.678Z,100.00
2022-08-01T02:36:58.390Z,100.00
2022-08-01T02:42:05.323Z,100.00
2022-08-01T02:47:13.840Z,100.00
2022-08-01T02:52:21.011Z,100.00
2022-08-01T02:57:25.595Z,100.00
2022-08-01T03:02:36.030Z,100.00
2022-08-01T03:07:40.988Z,100.00
2022-08-01T03:12:49.447Z,100.00
2022-08-01T03:17:52.583Z,100.00
2022-08-01T03:22:57.201Z,100.00
2022-08-01T03:28:03.061Z,100.00
2022-08-01T03:33:04.856Z,100.00
2022-08-01T03:38:16.263Z,100.00
2022-08-01T03:43:39.296Z,100.00
2022-08-01T03:48:49.867Z,100.00
2022-08-01T03:53:52.655Z,100.00
2022-08-01T03:58:56.691Z,100.00
2022-08-01T04:04:00.765Z,100.00
2022-08-01T04:09:13.305Z,100.00
2022-08-01T04:14:15.962Z,100.00
2022-08-01T04:19:20.004Z,100.00
2022-08-01T04:24:26.060Z,100.00
2022-08-01T04:29:33.456Z,100.00
2022-08-01T04:34:35.926Z,100.00
2022-08-01T04:39:51.115Z,100.00
2022-08-01T04:44:53.282Z,100.00
2022-08-01T04:49:57.639Z,100.00
2022-08-01T04:55:01.864Z,100.00
2022-08-01T05:00:09.417Z,100.00
2022-08-01T05:05:13.619Z,100.00
2022-08-01T05:10:15.487Z,100.00
2022-08-01T05:15:20.549Z,100.00
2022-08-01T05:20:27.335Z,100.00
2022-08-01T05:25:56.368Z,100.00
2022-08-01T05:30:56.526Z,100.00
2022-08-01T05:35:58.232Z,100.00
2022-08-01T05:41:00.319Z,100.00
2022-08-01T05:46:04.260Z,100.00
2022-08-01T05:51:06.113Z,100.00
2022-08-01T05:56:10.097Z,100.00
2022-08-01T06:01:15.229Z,100.00
2022-08-01T06:06:17.139Z,100.00
2022-08-01T06:11:21.207Z,100.00
2022-08-01T06:16:24.269Z,100.00
2022-08-01T06:21:26.350Z,100.00
2022-08-01T06:26:30.665Z,100.00
2022-08-01T06:31:33.971Z,100.00
2022-08-01T06:36:40.238Z,98.02
2022-08-01T06:41:47.932Z,98.07
2022-08-01T06:46:50.313Z,97.70
2022-08-01T06:51:55.328Z,96.40
2022-08-01T06:56:59.333Z,96.31
2022-08-01T07:02:03.738Z,94.76
2022-08-01T07:07:06.228Z,94.84
2022-08-01T07:12:09.086Z,93.57
2022-08-01T07:17:13.065Z,93.05
2022-08-01T07:22:23.444Z,91.80
2022-08-01T07:27:29.420Z,89.09
2022-08-01T07:32:35.212Z,89.64
2022-08-01T07:37:48.606Z,86.89
2022-08-01T07:42:51.557Z,86.29
2022-08-01T07:47:54.569Z,84.70
2022-08-01T07:53:01.111Z,84.38
2022-08-01T07:58:05.073Z,81.44
2022-08-01T08:03:07.622Z,80.95
2022-08-01T08:08:12.920Z,80.94
2022-08-01T08:13:15.299Z,79.86
2022-08-01T08:18:17.676Z,81.75
2022-08-01T08:23:42.008Z,79.34
2022-08-01T08:28:48.034Z,77.14
2022-08-01T08:33:55.318Z,75.50
2022-08-01T08:38:57.818Z,75.84
2022-08-01T08:44:06.410Z,76.40
2022-08-01T08:49:36.191Z,73.25
2022-08-01T08:54:42.769Z,72.13
2022-08-01T08:59:46.056Z,73.25
2022-08-01T09:04:51.191Z,71.69
2022-08-01T09:10:01.558Z,73.67
2022-08-01T09:15:10.526Z,71.16
2022-08-01T09:20:27.299Z,69.96
2022-08-01T09:25:46.151Z,68.56
2022-08-01T09:30:54.168Z,70.16
2022-08-01T09:35:58.795Z,70.51
2022-08-01T09:41:02.662Z,69.91
2022-08-01T09:46:15.240Z,69.10
2022-08-01T09:51:57.892Z,68.29
2022-08-01T09:57:09.925Z,68.56
2022-08-01T10:02:37.897Z,67.11
2022-08-01T10:08:02.761Z,67.42
2022-08-01T10:13:10.540Z,66.99
2022-08-01T10:18:16.147Z,65.57
2022-08-01T10:23:23.805Z,66.60
2022-08-01T10:28:54.135Z,65.31
2022-08-01T10:33:58.202Z,64.88
2022-08-01T10:39:05.252Z,65.34
2022-08-01T10:44:08.959Z,63.47
2022-08-01T10:49:16.972Z,63.77
2022-08-01T10:54:18.723Z,63.75
2022-08-01T10:59:51.161Z,61.93
2022-08-01T11:05:09.563Z,63.19
2022-08-01T11:10:24.273Z,60.22
2022-08-01T11:15:29.401Z,59.99
2022-08-01T11:20:42.099Z,59.49
2022-08-01T11:26:03.973Z,58.00
2022-08-01T11:31:11.712Z,57.72
2022-08-01T11:36:36.910Z,57.69
2022-08-01T11:41:47.537Z,56.21
2022-08-01T11:47:10.928Z,56.66
2022-08-01T11:52:25.093Z,56.36
2022-08-01T11:57:39.291Z,54.85
2022-08-01T12:02:45.605Z,54.78
2022-08-01T12:07:56.080Z,55.51
2022-08-01T12:13:04.195Z,53.08
2022-08-01T12:18:09.315Z,53.58
2022-08-01T12:23:17.455Z,53.29
2022-08-01T12:28:25.550Z,51.30
2022-08-01T12:33:27.978Z,50.50
2022-08-01T12:38:31.084Z,49.72
2022-08-01T12:43:33.035Z,47.41
2022-08-01T12:48:39.960Z,46.65
2022-08-01T12:53:47.206Z,46.55
2022-08-01T12:58:52.660Z,47.28
2022-08-01T13:04:05.246Z,45.22
2022-08-01T13:09:11.494Z,43.60
2022-08-01T13:14:30.736Z,42.14
2022-08-01T13:19:45.699Z,42.45
2022-08-01T13:24:49.480Z,43.28
2022-08-01T13:29:57.824Z,43.84
2022-08-01T13:35:07.491Z,42.14
2022-08-01T13:40:12.913Z,42.99
2022-08-01T13:45:15.205Z,44.48
2022-08-01T13:50:17.066Z,44.66
2022-08-01T13:55:21.085Z,44.03
2022-08-01T14:00:27.318Z,44.51
2022-08-01T14:05:31.302Z,42.93
2022-08-01T14:10:34.041Z,45.13
2022-08-01T14:15:39.881Z,45.20
2022-08-01T14:20:42.807Z,45.02
2022-08-01T14:26:05.570Z,40.12
2022-08-01T14:31:10.421Z,40.69
2022-08-01T14:36:30.155Z,41.69
2022-08-01T14:41:35.491Z,38.13
2022-08-01T14:46:57.190Z,38.41
2022-08-01T14:52:02.124Z,37.44
2022-08-01T14:57:07.084Z,33.98
2022-08-01T15:02:12.263Z,33.51
2022-08-01T15:07:19.583Z,31.83
2022-08-01T15:12:23.597Z,30.43
2022-08-01T15:17:30.328Z,31.96
2022-08-01T15:22:36.816Z,33.40
2022-08-01T15:27:41.206Z,30.58
2022-08-01T15:32:47.832Z,29.67
2022-08-01T15:37:55.266Z,28.99
2022-08-01T15:43:01.337Z,28.62
2022-08-01T15:48:05.935Z,28.76
2022-08-01T15:53:10.805Z,27.18
2022-08-01T15:58:12.821Z,26.73
2022-08-01T16:03:14.591Z,25.43
2022-08-01T16:08:21.221Z,26.30
2022-08-01T16:13:25.552Z,26.19
2022-08-01T16:18:27.235Z,25.63
2022-08-01T16:23:34.301Z,25.57
2022-08-01T16:28:38.381Z,26.38
2022-08-01T16:33:50.790Z,24.95
2022-08-01T16:38:57.177Z,24.65
2022-08-01T16:43:59.338Z,24.67
2022-08-01T16:49:01.425Z,25.00
2022-08-01T16:54:24.846Z,25.13
2022-08-01T16:59:31.917Z,25.88
2022-08-01T17:04:38.454Z,27.87
2022-08-01T17:09:43.790Z,31.22
2022-08-01T17:14:46.874Z,33.83
2022-08-01T17:19:49.806Z,35.17
2022-08-01T17:24:52.287Z,36.60
2022-08-01T17:30:00.732Z,38.70
2022-08-01T17:35:03.006Z,38.93
2022-08-01T17:40:37.474Z,42.21
2022-08-01T17:45:47.623Z,42.82
2022-08-01T17:50:52.162Z,43.76
2022-08-01T17:56:01.561Z,45.57
2022-08-01T18:01:05.839Z,45.65
2022-08-01T18:06:07.860Z,47.21
2022-08-01T18:11:10.017Z,48.06
2022-08-01T18:16:17.375Z,48.72
2022-08-01T18:21:25.847Z,49.87
2022-08-01T18:26:30.023Z,50.56
2022-08-01T18:31:31.759Z,52.12
2022-08-01T18:36:34.404Z,52.77
2022-08-01T18:41:38.974Z,52.03
2022-08-01T18:46:40.817Z,54.76
2022-08-01T18:51:44.990Z,54.23
2022-08-01T18:56:46.948Z,55.85
2022-08-01T19:01:51.110Z,55.37
2022-08-01T19:07:09.079Z,56.92
2022-08-01T19:12:11.101Z,58.44
2022-08-01T19:17:14.688Z,59.85
2022-08-01T19:22:18.742Z,58.47
2022-08-01T19:27:26.476Z,60.12
2022-08-01T19:32:32.944Z,61.82
2022-08-01T19:37:45.728Z,62.57
2022-08-01T19:42:50.002Z,63.98
2022-08-01T19:47:58.157Z,64.48
2022-08-01T19:53:05.252Z,65.22
2022-08-01T19:58:26.978Z,65.72
2022-08-01T20:03:33.222Z,65.97
2022-08-01T20:08:37.914Z,67.88
2022-08-01T20:13:42.291Z,68.29
2022-08-01T20:18:46.355Z,68.78
2022-08-01T20:23:50.602Z,69.76
2022-08-01T20:28:53.432Z,70.51
2022-08-01T20:33:56.462Z,71.03
2022-08-01T20:38:59.077Z,70.95
2022-08-01T20:44:00.817Z,71.49
2022-08-01T20:49:05.257Z,71.03
2022-08-01T20:54:10.804Z,71.05
2022-08-01T20:59:40.150Z,71.52
2022-08-01T21:04:55.042Z,72.38
2022-08-01T21:10:07.964Z,73.26
2022-08-01T21:15:15.371Z,73.23
2022-08-01T21:20:22.478Z,74.04
2022-08-01T21:25:35.708Z,74.51
2022-08-01T21:30:40.856Z,74.91
2022-08-01T21:35:52.233Z,76.24
2022-08-01T21:40:58.421Z,76.53
2022-08-01T21:46:04.299Z,76.94
2022-08-01T21:51:16.968Z,77.43
2022-08-01T21:57:02.013Z,77.41
2022-08-01T22:02:30.918Z,78.30
2022-08-01T22:07:42.304Z,78.07
2022-08-01T22:12:45.196Z,78.42
2022-08-01T22:17:52.561Z,78.46
2022-08-01T22:22:59.123Z,79.03
2022-08-01T22:28:09.407Z,78.64
2022-08-01T22:33:17.269Z,78.70
2022-08-01T22:38:24.110Z,79.41
2022-08-01T22:43:53.814Z,79.86
2022-08-01T22:49:08.985Z,79.70
2022-08-01T22:54:13.488Z,80.05
2022-08-01T22:59:41.812Z,80.63
2022-08-01T23:04:49.257Z,81.04
2022-08-01T23:09:57.343Z,80.97
2022-08-01T23:15:02.392Z,81.07
2022-08-01T23:20:11.248Z,81.45
2022-08-01T23:25:20.954Z,81.09
2022-08-01T23:30:28.016Z,81.94
2022-08-01T23:35:35.581Z,81.34
2022-08-01T23:40:43.516Z,82.30
2022-08-01T23:46:04.098Z,83.82
2022-08-01T23:51:07.180Z,83.33
2022-08-01T23:56:09.157Z,83.35
